Time;durP1;ratioP1;P1;durP2;ratioP2;P2;SDS_P1;SDS_P2;PMS_P1;PMS_P2;Temp;Humidity;BMP_temperature;BMP_pressure;BME280_temperature;BME280_humidity;BME280_pressure;Samples;Min_cycle;Max_cycle;Signal;HPM_P1;HPM_P2
2022/04/28 00:01:46;;;;;;;4.15;1.88;;;;;;;15.61;82.15;94473.53;5116383;27;20206;-61
2022/04/28 00:04:12;;;;;;;5.30;2.30;;;;;;;15.61;81.32;94470.16;5134544;27;20210;-62
2022/04/28 00:06:37;;;;;;;4.80;2.20;;;;;;;15.51;81.84;94467.00;5115981;27;20195;-61
2022/04/28 00:09:03;;;;;;;4.10;2.10;;;;;;;15.64;81.31;94472.38;5134648;27;20648;-61
2022/04/28 00:11:28;;;;;;;5.35;2.20;;;;;;;15.66;80.25;94485.84;5134513;27;20218;-60
2022/04/28 00:13:54;;;;;;;4.07;2.00;;;;;;;15.56;80.63;94480.09;5116002;27;20637;-61
2022/04/28 00:16:19;;;;;;;2.25;1.95;;;;;;;15.49;80.70;94474.84;5134093;27;20193;-61
2022/04/28 00:18:45;;;;;;;4.25;1.80;;;;;;;15.28;81.87;94459.16;5115757;27;20261;-61
2022/04/28 00:21:10;;;;;;;3.85;1.98;;;;;;;15.21;81.95;94460.75;5115815;27;20641;-62
2022/04/28 00:23:35;;;;;;;3.83;1.90;;;;;;;15.13;81.71;94464.13;5133970;27;20222;-61
2022/04/28 00:26:01;;;;;;;5.80;2.13;;;;;;;15.06;82.07;94463.19;5133935;27;20194;-61
2022/04/28 00:28:26;;;;;;;4.43;2.08;;;;;;;14.98;82.72;94455.53;5133794;27;20226;-60
2022/04/28 00:30:52;;;;;;;2.53;1.88;;;;;;;15.02;82.49;94450.88;5133904;27;20179;-61
2022/04/28 00:33:17;;;;;;;4.18;2.00;;;;;;;15.09;81.93;94467.16;5133188;27;20190;-61
2022/04/28 00:35:43;;;;;;;4.07;1.95;;;;;;;15.06;81.70;94464.94;5134321;27;20699;-61
2022/04/28 00:38:11;;;;;;;5.07;2.45;;;;;;;15.08;81.60;94470.72;5115598;27;20696;-62
2022/04/28 00:40:36;;;;;;;3.95;1.98;;;;;;;15.00;81.74;94473.28;5134253;27;20645;-61
2022/04/28 00:43:20;;;;;;;6.00;2.15;;;;;;;15.03;81.16;94481.44;5133573;27;20335;-61
2022/04/28 00:45:47;;;;;;;4.32;2.17;;;;;;;14.98;81.96;94470.88;5134346;27;20228;-62
2022/04/28 00:51:00;;;;;;;3.17;1.73;;;;;;;15.19;80.66;94492.63;5133899;27;20194;-61
2022/04/28 00:53:28;;;;;;;5.45;2.30;;;;;;;15.11;81.42;94472.94;5133316;27;20676;-61
2022/04/28 00:55:54;;;;;;;3.22;2.00;;;;;;;15.17;82.35;94468.94;5133449;27;20246;-62
2022/04/28 00:58:20;;;;;;;5.45;2.30;;;;;;;15.05;82.45;94466.69;5133217;27;20665;-61
2022/04/28 01:00:46;;;;;;;2.80;1.70;;;;;;;15.09;83.02;94467.97;5133206;27;20189;-61
2022/04/28 01:03:12;;;;;;;3.47;2.17;;;;;;;15.37;81.47;94493.25;5133379;27;20673;-61
2022/04/28 01:05:38;;;;;;;6.28;1.98;;;;;;;15.32;81.58;94485.25;5115059;27;20179;-61
2022/04/28 01:08:04;;;;;;;2.50;2.00;;;;;;;15.09;82.49;94467.16;5133714;27;20202;-61
2022/04/28 01:10:30;;;;;;;6.47;2.33;;;;;;;15.15;82.38;94477.56;5133777;27;20603;-61
2022/04/28 01:12:56;;;;;;;3.83;1.90;;;;;;;14.96;83.64;94462.56;5133078;27;20252;-62
2022/04/28 01:15:22;;;;;;;8.35;2.03;;;;;;;15.08;82.33;94486.88;5114816;27;20240;-62
2022/04/28 01:17:47;;;;;;;3.45;1.83;;;;;;;15.01;82.52;94482.53;5133020;27;20207;-61
2022/04/28 01:20:12;;;;;;;4.53;2.20;;;;;;;15.15;81.03;94492.94;5133439;27;20222;-62
2022/04/28 01:22:38;;;;;;;4.65;1.60;;;;;;;15.17;80.85;94507.34;5132986;27;20193;-61
2022/04/28 01:25:07;;;;;;;2.78;2.22;;;;;;;15.20;80.65;94505.25;5133368;27;20567;-61
2022/04/28 01:27:33;;;;;;;2.97;1.98;;;;;;;15.11;81.37;94481.41;5133114;27;20199;-62
2022/04/28 01:29:59;;;;;;;6.47;2.30;;;;;;;15.05;81.99;94481.25;5133309;27;20190;-61
2022/04/28 01:32:25;;;;;;;5.32;2.05;;;;;;;14.98;82.78;94478.56;5132985;27;20674;-62
2022/04/28 01:34:51;;;;;;;3.70;2.38;;;;;;;15.03;82.69;94483.19;5133178;27;20179;-62
2022/04/28 01:37:17;;;;;;;3.90;1.70;;;;;;;14.95;83.62;94467.81;5097293;27;20275;-61
2022/04/28 01:39:43;;;;;;;4.90;1.77;;;;;;;15.01;82.85;94488.47;5132562;27;20267;-61
2022/04/28 01:42:08;;;;;;;5.35;1.75;;;;;;;15.02;83.78;94484.16;5132571;27;20285;-61
2022/04/28 01:44:34;;;;;;;3.67;2.00;;;;;;;15.07;82.53;94494.69;5114466;27;20222;-62
2022/04/28 01:47:00;;;;;;;5.78;2.30;;;;;;;15.03;82.92;94484.00;5114084;27;20199;-62
2022/04/28 01:49:26;;;;;;;2.45;1.73;;;;;;;15.03;83.17;94484.00;5132744;27;20183;-61
2022/04/28 01:57:19;;;;;;;6.50;3.63;;;;;;;14.75;90.86;94451.19;5132425;27;20323;-61
2022/04/28 01:59:46;;;;;;;7.03;3.83;;;;;;;14.72;92.33;94461.75;5132819;27;20657;-61
2022/04/28 02:02:11;;;;;;;6.88;4.10;;;;;;;14.51;94.41;94454.53;5132326;27;20260;-61
2022/04/28 02:04:38;;;;;;;6.22;3.28;;;;;;;14.21;96.34;94462.78;5132598;28;20326;-61
2022/04/28 02:07:03;;;;;;;4.95;3.30;;;;;;;14.10;98.28;94468.97;5113908;28;20600;-62
2022/04/28 02:09:29;;;;;;;7.17;3.10;;;;;;;14.03;98.78;94478.22;5132705;28;20179;-61
2022/04/28 02:11:54;;;;;;;5.97;3.30;;;;;;;14.02;99.21;94476.63;5132806;22;20319;-62
2022/04/28 02:14:20;;;;;;;5.27;3.83;;;;;;;13.88;100.00;94478.94;5111754;28;20705;-61
2022/04/28 02:16:45;;;;;;;12.65;3.47;;;;;;;13.82;100.00;94489.78;5112001;28;20203;-62
2022/04/28 02:19:11;;;;;;;8.48;3.45;;;;;;;13.72;100.00;94484.00;5112033;28;20601;-62
2022/04/28 02:21:36;;;;;;;6.97;3.63;;;;;;;13.76;100.00;94495.50;5112019;28;20203;-61
2022/04/28 02:24:02;;;;;;;10.32;4.25;;;;;;;13.66;100.00;94494.81;5111715;28;20203;-60
2022/04/28 02:26:27;;;;;;;9.90;3.80;;;;;;;13.60;100.00;94500.53;5111567;28;20215;-62
2022/04/28 02:28:53;;;;;;;5.78;3.88;;;;;;;13.69;100.00;94499.66;5111911;28;20175;-61
2022/04/28 02:31:18;;;;;;;9.60;4.30;;;;;;;13.61;100.00;94508.06;5111855;28;20531;-60
2022/04/28 02:33:44;;;;;;;5.95;4.45;;;;;;;13.56;100.00;94514.56;5111927;28;20175;-61
2022/04/28 02:36:09;;;;;;;10.93;6.78;;;;;;;13.52;100.00;94503.84;5111571;28;20221;-62
2022/04/28 02:38:35;;;;;;;5.80;4.20;;;;;;;13.46;100.00;94512.94;5111351;28;20248;-61
2022/04/28 02:41:01;;;;;;;9.40;4.50;;;;;;;13.49;100.00;94512.63;5111535;28;20180;-60
2022/04/28 02:43:26;;;;;;;7.97;4.93;;;;;;;13.57;100.00;94516.19;5093291;28;20609;-61
2022/04/28 02:45:53;;;;;;;7.68;4.82;;;;;;;13.51;100.00;94516.78;5111527;28;20182;-61
2022/04/28 02:48:19;;;;;;;7.25;4.18;;;;;;;13.62;100.00;94519.06;5111261;28;20199;-61
2022/04/28 02:50:44;;;;;;;7.97;5.15;;;;;;;13.61;100.00;94517.47;5111430;28;20541;-62
2022/04/28 02:53:10;;;;;;;11.53;5.40;;;;;;;13.52;100.00;94516.63;5114001;28;20195;-61
2022/04/28 02:55:35;;;;;;;5.72;4.40;;;;;;;13.39;100.00;94519.56;5097280;28;20172;-62
2022/04/28 02:58:01;;;;;;;12.60;4.72;;;;;;;13.47;100.00;94526.50;5115392;28;20268;-61
2022/04/28 03:00:27;;;;;;;7.73;4.93;;;;;;;13.41;100.00;94522.78;5115400;28;20195;-62
2022/04/28 03:02:53;;;;;;;7.33;4.67;;;;;;;13.37;100.00;94525.81;5096833;28;20246;-61
2022/04/28 03:05:18;;;;;;;6.47;4.17;;;;;;;13.27;100.00;94530.97;5115053;28;20204;-61
2022/04/28 03:10:54;;;;;;;9.87;4.87;;;;;;;13.29;100.00;94530.84;5114973;28;20190;-63
2022/04/28 03:13:21;;;;;;;7.03;4.50;;;;;;;13.32;100.00;94533.91;5114094;28;20246;-60
2022/04/28 03:15:48;;;;;;;6.07;3.60;;;;;;;13.57;100.00;94536.63;5115107;28;20179;-61
2022/04/28 03:18:17;;;;;;;6.90;3.93;;;;;;;13.51;100.00;94538.03;5114681;28;20227;-60
2022/04/28 03:20:43;;;;;;;6.20;4.30;;;;;;;13.49;100.00;94548.38;5095836;28;20252;-62
2022/04/28 03:23:11;;;;;;;8.37;3.73;;;;;;;13.51;100.00;94544.88;5112709;28;20685;-62
2022/04/28 03:25:37;;;;;;;5.77;3.60;;;;;;;13.51;100.00;94552.53;5114631;28;20186;-61
2022/04/28 03:28:04;;;;;;;5.27;3.93;;;;;;;13.53;100.00;94555.75;5114688;28;20200;-59
2022/04/28 03:30:29;;;;;;;5.60;4.37;;;;;;;13.44;100.00;94557.44;5114560;28;20167;-60
2022/04/28 03:32:54;;;;;;;5.77;4.00;;;;;;;13.39;100.00;94560.44;5096066;28;20228;-61
2022/04/28 03:35:20;;;;;;;6.00;3.90;;;;;;;13.47;100.00;94564.81;5114323;28;20210;-61
2022/04/28 03:37:47;;;;;;;10.40;4.20;;;;;;;13.42;100.00;94570.38;5115066;28;20199;-60
2022/04/28 03:40:14;;;;;;;6.60;4.33;;;;;;;13.40;100.00;94572.25;5114186;28;20171;-60
2022/04/28 03:42:40;;;;;;;8.43;4.27;;;;;;;13.40;100.00;94577.38;5114600;28;20532;-60
2022/04/28 03:45:06;;;;;;;8.87;4.23;;;;;;;13.36;100.00;94581.16;5113964;28;20210;-60
2022/04/28 03:47:33;;;;;;;6.22;4.28;;;;;;;13.59;100.00;94594.28;5114681;28;20200;-61
2022/04/28 03:49:58;;;;;;;8.00;4.10;;;;;;;13.49;100.00;94586.69;5114524;28;20176;-61
2022/04/28 03:52:24;;;;;;;5.13;4.13;;;;;;;13.54;100.00;94587.97;5114587;28;20298;-60
2022/04/28 03:54:50;;;;;;;6.83;4.23;;;;;;;13.51;100.00;94588.28;5113850;28;20187;-60
2022/04/28 03:57:15;;;;;;;7.05;4.35;;;;;;;13.42;100.00;94587.44;5114313;28;20215;-60
2022/04/28 03:59:41;;;;;;;6.93;4.47;;;;;;;13.37;100.00;94584.53;5113966;28;20205;-61
2022/04/28 04:02:06;;;;;;;6.43;4.80;;;;;;;13.49;100.00;94596.88;5113796;28;20218;-61
2022/04/28 04:04:31;;;;;;;8.63;4.97;;;;;;;13.51;100.00;94583.19;5113264;28;20211;-61
2022/04/28 04:06:57;;;;;;;10.23;5.47;;;;;;;13.53;100.00;94591.50;5113869;28;20246;-61
2022/04/28 04:09:23;;;;;;;7.00;5.63;;;;;;;13.63;100.00;94595.56;5113525;28;20239;-61
2022/04/28 04:11:49;;;;;;;8.43;5.73;;;;;;;13.65;100.00;94597.97;5095585;28;20208;-61
2022/04/28 04:14:14;;;;;;;10.10;5.90;;;;;;;13.71;100.00;94603.28;5113654;28;20292;-60
2022/04/28 04:16:40;;;;;;;8.83;6.53;;;;;;;13.48;100.00;94590.19;5113844;28;20199;-60
2022/04/28 04:19:05;;;;;;;8.50;6.37;;;;;;;13.56;100.00;94601.41;5113702;28;20184;-61
2022/04/28 04:21:31;;;;;;;9.13;6.70;;;;;;;13.42;100.00;94598.44;5113424;28;20264;-62
2022/04/28 04:23:57;;;;;;;8.17;6.67;;;;;;;13.32;100.00;94594.38;5113470;28;20278;-60
2022/04/28 04:26:22;;;;;;;10.63;7.50;;;;;;;13.22;100.00;94594.47;5113444;28;20187;-61
2022/04/28 04:28:48;;;;;;;12.63;7.17;;;;;;;13.72;100.00;94607.44;5095274;28;20241;-62
2022/04/28 04:33:57;;;;;;;10.90;7.20;;;;;;;14.22;100.00;94607.56;5113060;28;20679;-61
2022/04/28 04:36:23;;;;;;;12.23;6.37;;;;;;;14.40;100.00;94626.22;5113091;28;20184;-61
2022/04/28 04:38:48;;;;;;;9.68;7.47;;;;;;;14.39;100.00;94637.41;5095194;28;20214;-61
2022/04/28 04:41:14;;;;;;;8.43;6.90;;;;;;;14.22;100.00;94620.34;5094663;28;20279;-62
2022/04/28 04:43:40;;;;;;;7.80;7.00;;;;;;;14.25;100.00;94625.97;5112900;28;20196;-62
2022/04/28 04:46:06;;;;;;;8.40;7.30;;;;;;;13.92;100.00;94619.06;5113185;28;20256;-61
2022/04/28 04:48:31;;;;;;;10.80;7.00;;;;;;;13.40;100.00;94617.41;5112982;28;20203;-62
2022/04/28 04:50:57;;;;;;;10.23;7.40;;;;;;;13.26;100.00;94618.75;5113390;28;20191;-62
2022/04/28 04:53:23;;;;;;;9.73;6.30;;;;;;;13.10;100.00;94626.25;5113215;28;20206;-62
2022/04/28 04:55:48;;;;;;;10.47;7.30;;;;;;;13.02;100.00;94626.16;5111968;28;20775;-61
2022/04/28 04:58:14;;;;;;;9.77;6.97;;;;;;;12.88;100.00;94619.00;5111394;28;20653;-63
2022/04/28 05:00:39;;;;;;;15.97;7.03;;;;;;;12.97;100.00;94620.66;5112674;28;20186;-60
2022/04/28 05:03:05;;;;;;;7.37;6.10;;;;;;;13.12;100.00;94637.13;5112600;28;20192;-61
2022/04/28 05:05:31;;;;;;;8.30;5.50;;;;;;;13.09;100.00;94632.31;5112817;28;20560;-60
2022/04/28 05:07:57;;;;;;;6.00;4.83;;;;;;;13.00;100.00;94637.44;5094250;28;20207;-62
2022/04/28 05:10:22;;;;;;;7.83;4.07;;;;;;;12.51;100.00;94633.56;5112779;28;20263;-61
2022/04/28 05:12:48;;;;;;;3.50;3.20;;;;;;;12.68;100.00;94645.56;5112901;28;20210;-61
2022/04/28 05:15:14;;;;;;;5.03;2.80;;;;;;;12.45;100.00;94644.34;5111882;28;20180;-61
2022/04/28 05:17:40;;;;;;;3.37;2.93;;;;;;;12.28;100.00;94652.75;5113003;28;20232;-61
2022/04/28 05:20:07;;;;;;;3.20;2.60;;;;;;;12.16;100.00;94657.19;5094173;28;20544;-62
2022/04/28 05:22:33;;;;;;;2.87;2.47;;;;;;;12.13;100.00;94652.38;5111030;28;20282;-62
2022/04/28 05:24:59;;;;;;;3.90;2.40;;;;;;;12.01;100.00;94660.31;5110218;28;20676;-60
2022/04/28 05:27:24;;;;;;;4.10;2.33;;;;;;;11.94;100.00;94664.38;5112788;28;20337;-62
2022/04/28 05:29:51;;;;;;;2.30;2.10;;;;;;;11.90;100.00;94658.75;5094323;28;20184;-62
2022/04/28 05:32:16;;;;;;;4.20;2.07;;;;;;;11.89;100.00;94659.69;5112249;28;20704;-62
2022/04/28 05:34:41;;;;;;;3.33;2.00;;;;;;;11.84;100.00;94669.47;5112307;28;20180;-63
2022/04/28 05:37:07;;;;;;;1.83;1.60;;;;;;;11.76;100.00;94664.25;5112450;28;20212;-62
2022/04/28 05:39:34;;;;;;;4.27;1.97;;;;;;;11.63;100.00;94667.09;5093971;28;20184;-62
2022/04/28 05:42:01;;;;;;;2.70;1.80;;;;;;;11.53;100.00;94666.25;5093927;28;20207;-61
2022/04/28 05:47:10;;;;;;;6.33;2.17;;;;;;;11.59;100.00;94673.38;5112530;28;20260;-63
2022/04/28 05:49:38;;;;;;;5.60;2.77;;;;;;;11.52;100.00;94679.13;5111981;28;20189;-61
2022/04/28 05:52:04;;;;;;;2.63;1.70;;;;;;;11.49;100.00;94685.28;5112153;28;20213;-60
2022/04/28 05:54:29;;;;;;;1.83;1.60;;;;;;;11.53;100.00;94689.19;5111955;28;20171;-61
2022/04/28 05:56:54;;;;;;;2.77;1.67;;;;;;;11.58;100.00;94688.78;5112281;28;20286;-61
2022/04/28 05:59:20;;;;;;;3.80;1.63;;;;;;;11.54;100.00;94690.81;5112212;28;20267;-60
2022/04/28 06:01:45;;;;;;;5.20;1.60;;;;;;;11.61;100.00;94699.53;5111800;28;20685;-63
2022/04/28 06:04:11;;;;;;;3.60;1.50;;;;;;;11.55;100.00;94694.16;5111917;28;20599;-62
2022/04/28 06:06:37;;;;;;;2.90;1.20;;;;;;;11.52;100.00;94696.97;5112017;28;20207;-61
2022/04/28 06:09:03;;;;;;;2.00;1.40;;;;;;;11.53;100.00;94696.81;5112026;28;20186;-62
2022/04/28 06:11:28;;;;;;;2.40;1.30;;;;;;;11.32;100.00;94698.69;5111953;28;20895;-61
2022/04/28 06:13:54;;;;;;;2.00;1.23;;;;;;;11.33;100.00;94705.38;5111560;28;20649;-61
2022/04/28 06:16:20;;;;;;;4.33;1.40;;;;;;;11.23;100.00;94702.03;5093240;28;20191;-61
2022/04/28 06:18:45;;;;;;;3.00;1.87;;;;;;;11.28;100.00;94702.44;5111608;28;20619;-61
2022/04/28 06:21:11;;;;;;;3.43;1.20;;;;;;;11.19;100.00;94703.22;5111605;28;20194;-61
2022/04/28 06:23:36;;;;;;;2.63;1.77;;;;;;;11.14;100.00;94705.38;5093252;28;20211;-61
2022/04/28 06:26:02;;;;;;;2.43;1.73;;;;;;;11.10;100.00;94708.31;5112591;28;20183;-63
2022/04/28 06:28:28;;;;;;;2.67;1.60;;;;;;;11.06;100.00;94712.88;5123052;22;20227;-62
2022/04/28 06:30:54;;;;;;;5.53;1.80;;;;;;;11.09;100.00;94712.59;5115900;28;20594;-62
2022/04/28 06:33:20;;;;;;;2.97;1.73;;;;;;;11.04;100.00;94717.28;5115859;28;20624;-62
2022/04/28 06:35:45;;;;;;;8.40;2.43;;;;;;;11.14;100.00;94714.75;5115840;28;20183;-61
2022/04/28 06:38:11;;;;;;;4.83;2.30;;;;;;;11.20;100.00;94716.75;5115745;28;20218;-61
2022/04/28 06:40:36;;;;;;;2.60;2.03;;;;;;;11.12;100.00;94722.50;5115459;28;20650;-62
2022/04/28 06:43:02;;;;;;;3.67;1.83;;;;;;;11.13;100.00;94719.03;5115481;28;20661;-62
2022/04/28 06:45:28;;;;;;;4.13;1.67;;;;;;;11.08;100.00;94718.63;5115329;28;20206;-62
2022/04/28 06:47:53;;;;;;;2.20;1.33;;;;;;;11.18;100.00;94716.09;5115874;28;20195;-62
2022/04/28 06:50:19;;;;;;;2.77;1.30;;;;;;;11.07;100.00;94719.56;5097073;28;20643;-61
2022/04/28 06:52:44;;;;;;;3.90;2.30;;;;;;;11.20;100.00;94724.41;5115270;28;20730;-61
2022/04/28 06:55:10;;;;;;;2.70;2.07;;;;;;;11.08;100.00;94726.25;5115384;28;20176;-62
2022/04/28 06:57:37;;;;;;;3.40;1.83;;;;;;;11.11;100.00;94723.44;5096947;28;20291;-62
2022/04/28 07:00:07;;;;;;;2.77;1.30;;;;;;;11.04;100.00;94730.00;5115237;28;20172;-61
2022/04/28 07:02:33;;;;;;;3.40;1.80;;;;;;;11.11;100.00;94725.97;5115696;28;20216;-62
2022/04/28 07:04:59;;;;;;;4.07;1.90;;;;;;;11.20;100.00;94732.03;5115112;28;20203;-61
2022/04/28 07:07:25;;;;;;;2.20;1.33;;;;;;;11.19;100.00;94733.75;5115418;28;20286;-62
2022/04/28 07:09:50;;;;;;;1.93;1.50;;;;;;;11.16;100.00;94739.13;5115002;28;20176;-61
2022/04/28 07:12:16;;;;;;;1.93;1.50;;;;;;;11.25;100.00;94742.63;5096742;28;20684;-62
2022/04/28 07:14:43;;;;;;;2.50;1.53;;;;;;;11.33;100.00;94737.69;5114682;28;20183;-60
2022/04/28 07:17:09;;;;;;;1.83;1.00;;;;;;;11.29;100.00;94736.34;5112878;28;20674;-61
2022/04/28 07:19:34;;;;;;;4.57;1.90;;;;;;;11.10;100.00;94736.28;5112647;28;20187;-63
2022/04/28 07:22:02;;;;;;;3.17;1.73;;;;;;;11.23;100.00;94734.31;5115133;28;20264;-62
2022/04/28 07:24:29;;;;;;;3.53;1.40;;;;;;;11.21;100.00;94739.53;5114964;28;20256;-62
2022/04/28 07:26:54;;;;;;;2.00;1.63;;;;;;;11.19;100.00;94738.84;5114513;28;20246;-62
2022/04/28 07:29:20;;;;;;;2.63;1.60;;;;;;;11.29;100.00;94744.75;5114541;28;20613;-63
2022/04/28 07:31:45;;;;;;;3.73;1.53;;;;;;;11.36;100.00;94750.13;5114673;28;20545;-63
2022/04/28 07:34:11;;;;;;;1.97;1.60;;;;;;;11.35;100.00;94739.16;5114591;28;20176;-62
2022/04/28 07:36:36;;;;;;;2.03;1.27;;;;;;;11.29;100.00;94742.22;5096283;28;20211;-62
2022/04/28 07:39:02;;;;;;;1.80;1.23;;;;;;;11.40;100.00;94748.94;5113634;28;20168;-62
2022/04/28 07:41:28;;;;;;;1.53;1.40;;;;;;;11.49;100.00;94746.38;5114302;28;20244;-62
2022/04/28 07:43:54;;;;;;;6.50;1.40;;;;;;;11.49;100.00;94746.38;5113239;28;20230;-63
2022/04/28 07:46:20;;;;;;;3.23;1.50;;;;;;;11.58;100.00;94745.59;5112290;28;20698;-63
2022/04/28 07:48:45;;;;;;;1.90;1.50;;;;;;;11.57;100.00;94743.97;5112624;28;20224;-63
2022/04/28 07:51:11;;;;;;;1.77;1.67;;;;;;;11.69;100.00;94753.16;5113960;28;20626;-63
2022/04/28 07:53:37;;;;;;;1.90;1.10;;;;;;;11.66;100.00;94753.41;5114233;28;20680;-62
2022/04/28 07:56:17;;;;;;;1.47;1.17;;;;;;;11.58;100.00;94750.69;5114497;28;20206;-63
2022/04/28 07:58:44;;;;;;;5.00;1.50;;;;;;;11.63;100.00;94751.13;5114484;28;20630;-61
2022/04/28 08:01:13;;;;;;;6.93;2.80;;;;;;;11.62;100.00;94759.69;5114197;28;20195;-62
2022/04/28 08:03:40;;;;;;;4.13;1.80;;;;;;;11.68;100.00;94759.16;5096009;28;20235;-62
2022/04/28 08:06:07;;;;;;;4.53;1.63;;;;;;;11.64;100.00;94762.91;5121627;22;20318;-61
2022/04/28 08:08:33;;;;;;;2.93;2.00;;;;;;;11.70;100.00;94770.03;5095483;28;20195;-62
2022/04/28 08:10:59;;;;;;;2.30;1.77;;;;;;;11.67;100.00;94765.22;5095746;28;20301;-60
2022/04/28 08:13:25;;;;;;;2.47;2.00;;;;;;;11.66;100.00;94762.78;5114091;28;20293;-62
2022/04/28 08:15:50;;;;;;;3.43;1.37;;;;;;;11.71;100.00;94758.09;5114401;28;20630;-62
2022/04/28 08:18:16;;;;;;;3.00;2.10;;;;;;;11.76;100.00;94766.94;5113926;28;20674;-62
2022/04/28 08:20:42;;;;;;;5.17;1.73;;;;;;;11.82;100.00;94762.28;5114300;28;20184;-62
2022/04/28 08:23:08;;;;;;;5.50;1.77;;;;;;;11.86;100.00;94773.81;5113420;28;20523;-61
2022/04/28 08:25:33;;;;;;;3.40;1.90;;;;;;;11.84;100.00;94770.59;5113918;28;20231;-63
2022/04/28 08:27:59;;;;;;;3.27;1.97;;;;;;;11.85;100.00;94774.72;5113513;28;20296;-64
2022/04/28 08:30:25;;;;;;;1.97;1.70;;;;;;;11.80;100.00;94772.56;5113926;28;20236;-62
2022/04/28 08:32:50;;;;;;;1.53;1.27;;;;;;;11.66;100.00;94778.88;5113532;28;20207;-62
2022/04/28 08:35:22;;;;;;;3.73;1.43;;;;;;;11.70;100.00;94774.31;5113137;28;20613;-63
2022/04/28 08:37:48;;;;;;;3.83;2.07;;;;;;;11.87;100.00;94770.28;5113314;28;20211;-62
2022/04/28 08:40:14;;;;;;;2.43;1.53;;;;;;;12.00;100.00;94781.03;5112098;28;20176;-62
2022/04/28 08:42:44;;;;;;;2.47;1.83;;;;;;;12.04;100.00;94772.19;5093355;28;20207;-62
2022/04/28 08:45:10;;;;;;;3.07;1.87;;;;;;;12.03;100.00;94778.19;5113454;28;20764;-62
2022/04/28 08:47:36;;;;;;;4.93;1.83;;;;;;;12.02;100.00;94785.03;5113130;28;20290;-64
2022/04/28 08:50:01;;;;;;;2.37;2.17;;;;;;;11.85;100.00;94782.38;5113899;28;20214;-61
2022/04/28 08:52:27;;;;;;;6.60;2.90;;;;;;;11.95;100.00;94780.63;5113351;28;20734;-62
2022/04/28 08:54:54;;;;;;;2.80;2.33;;;;;;;12.00;100.00;94781.81;5113427;28;20187;-62
2022/04/28 08:57:24;;;;;;;3.20;2.10;;;;;;;12.31;100.00;94785.00;5113149;28;20199;-63
2022/04/28 08:59:51;;;;;;;5.30;2.23;;;;;;;12.36;100.00;94782.84;5095471;28;20779;-61
2022/04/28 09:02:23;;;;;;;5.27;2.40;;;;;;;12.41;100.00;94783.22;5113147;28;20557;-61
2022/04/28 09:04:49;;;;;;;3.33;2.47;;;;;;;12.50;100.00;94788.31;5113087;28;20230;-61
2022/04/28 09:07:15;;;;;;;6.80;2.40;;;;;;;12.44;100.00;94786.31;5113088;28;20207;-62
2022/04/28 09:09:40;;;;;;;4.40;1.80;;;;;;;12.35;100.00;94787.16;5113332;28;20253;-61
2022/04/28 09:12:06;;;;;;;4.93;2.43;;;;;;;12.37;100.00;94779.34;5112411;28;20234;-62
2022/04/28 09:14:32;;;;;;;2.30;1.87;;;;;;;12.48;100.00;94785.09;5112732;28;20218;-61
2022/04/28 09:17:03;;;;;;;6.80;2.50;;;;;;;12.40;100.00;94787.53;5112521;28;20561;-60
2022/04/28 09:19:32;;;;;;;3.30;2.50;;;;;;;12.55;100.00;94787.91;5094557;28;20199;-62
2022/04/28 09:22:09;;;;;;;2.50;2.30;;;;;;;12.74;100.00;94799.78;5112464;28;20191;-61
2022/04/28 09:24:39;;;;;;;3.17;2.23;;;;;;;13.06;100.00;94801.06;5112381;28;20280;-62
2022/04/28 09:27:05;;;;;;;2.43;2.17;;;;;;;12.96;100.00;94804.53;5093986;28;20202;-61
2022/04/28 09:29:36;;;;;;;5.23;2.07;;;;;;;12.97;100.00;94804.41;5112661;28;20267;-60
2022/04/28 09:32:08;;;;;;;5.73;2.33;;;;;;;13.07;100.00;94794.97;5112160;28;20191;-61
2022/04/28 09:34:34;;;;;;;2.87;1.90;;;;;;;12.99;100.00;94792.31;5120026;22;20393;-62
2022/04/28 09:36:59;;;;;;;7.13;2.97;;;;;;;12.87;100.00;94802.81;5112296;28;20742;-60
2022/04/28 09:42:29;;;;;;;4.20;2.17;;;;;;;12.79;100.00;94790.78;5112437;28;20203;-61
2022/04/28 09:44:56;;;;;;;7.57;3.20;;;;;;;12.97;100.00;94806.94;5111120;28;20208;-62
2022/04/28 09:47:23;;;;;;;5.70;2.27;;;;;;;12.88;100.00;94802.72;5111460;28;20286;-61
2022/04/28 09:49:55;;;;;;;6.17;2.93;;;;;;;12.87;100.00;94798.53;5112049;28;20191;-62
2022/04/28 09:52:23;;;;;;;4.53;2.30;;;;;;;12.90;100.00;94795.72;5112499;28;20200;-61
2022/04/28 09:54:54;;;;;;;11.97;2.93;;;;;;;13.15;100.00;94799.41;5112230;28;20654;-60
2022/04/28 09:57:20;;;;;;;3.60;2.10;;;;;;;13.10;100.00;94809.22;5093762;28;20211;-61
2022/04/28 09:59:57;;;;;;;5.40;2.60;;;;;;;13.44;100.00;94812.81;5112515;28;20184;-62
2022/04/28 10:02:25;;;;;;;3.33;2.07;;;;;;;13.61;100.00;94811.25;5094763;28;20685;-62
2022/04/28 10:04:51;;;;;;;4.57;2.30;;;;;;;13.37;100.00;94812.56;5095069;28;20203;-60
2022/04/28 10:07:17;;;;;;;4.70;2.13;;;;;;;13.40;100.00;94814.03;5114084;28;20203;-63
2022/04/28 10:09:46;;;;;;;5.03;2.30;;;;;;;13.44;100.00;94813.63;5113584;28;20216;-61
2022/04/28 10:12:14;;;;;;;4.47;2.40;;;;;;;13.41;100.00;94813.09;5111978;28;20713;-62
2022/04/28 10:14:41;;;;;;;2.43;2.00;;;;;;;13.57;100.00;94817.56;5111955;28;20672;-61
2022/04/28 10:17:21;;;;;;;5.57;3.43;;;;;;;13.66;100.00;94807.28;5111897;28;20201;-62
2022/04/28 10:19:58;;;;;;;4.83;2.77;;;;;;;13.85;100.00;94842.94;5112567;28;20224;-62
2022/04/28 10:22:31;;;;;;;7.53;3.00;;;;;;;14.06;100.00;94824.75;5112685;28;20195;-63
2022/04/28 10:33:26;;;;;;;5.05;2.08;;;;;;;13.81;100.00;94838.25;5112115;28;20257;-60
2022/04/28 10:35:57;;;;;;;6.27;2.23;;;;;;;13.84;100.00;94814.97;5111776;28;20180;-62
2022/04/28 10:38:30;;;;;;;5.43;2.45;;;;;;;13.78;100.00;94810.44;5111771;28;20207;-62
2022/04/28 10:41:10;;;;;;;3.43;2.43;;;;;;;14.23;100.00;94835.00;5111969;28;20185;-61
2022/04/28 10:43:38;;;;;;;9.13;2.72;;;;;;;14.18;100.00;94821.03;5112768;28;20295;-61
2022/04/28 10:46:06;;;;;;;5.03;2.30;;;;;;;14.14;100.00;94828.19;5112105;28;20172;-62
2022/04/28 10:48:34;;;;;;;7.47;3.50;;;;;;;14.01;100.00;94814.19;5111494;28;20200;-61
2022/04/28 10:51:04;;;;;;;4.40;2.67;;;;;;;14.10;100.00;94808.97;5112028;28;20179;-61
2022/04/28 10:53:31;;;;;;;5.87;2.70;;;;;;;14.38;100.00;94830.19;5093349;28;20203;-62
2022/04/28 10:56:05;;;;;;;2.92;2.60;;;;;;;14.10;100.00;94805.59;5111539;28;20172;-62
2022/04/28 10:58:31;;;;;;;8.55;2.70;;;;;;;13.91;100.00;94810.88;5111825;28;20332;-61
2022/04/28 11:00:59;;;;;;;5.90;2.90;;;;;;;14.17;100.00;94819.44;5111262;28;20258;-63
2022/04/28 11:03:46;;;;;;;4.57;2.38;;;;;;;14.04;100.00;94812.13;5111559;28;20204;-61
2022/04/28 11:06:21;;;;;;;2.93;2.60;;;;;;;13.82;100.00;94806.63;5111110;28;20199;-61
2022/04/28 11:08:53;;;;;;;4.27;2.30;;;;;;;13.83;100.00;94795.47;5111060;28;20183;-62
2022/04/28 11:11:19;;;;;;;5.32;3.03;;;;;;;14.17;100.00;94819.44;5111243;28;20175;-62
2022/04/28 11:13:49;;;;;;;6.70;3.23;;;;;;;13.83;100.00;94795.47;5114094;28;20187;-61
2022/04/28 11:16:16;;;;;;;4.97;2.90;;;;;;;13.88;100.00;94790.72;5115576;28;20249;-61
2022/04/28 11:18:43;;;;;;;4.37;3.10;;;;;;;14.06;100.00;94794.88;5115804;28;20190;-61
2022/04/28 11:21:09;;;;;;;4.17;2.93;;;;;;;14.09;100.00;94797.16;5115582;28;20528;-62
2022/04/28 11:23:41;;;;;;;7.40;3.60;;;;;;;14.20;100.00;94821.69;5096782;28;20290;-61
2022/04/28 11:26:09;;;;;;;4.05;3.25;;;;;;;14.55;100.00;94816.53;5115450;28;20290;-61
2022/04/28 11:28:36;;;;;;;3.47;2.50;;;;;;;14.66;100.00;94834.22;5115389;28;20176;-61
2022/04/28 11:31:08;;;;;;;5.07;2.97;;;;;;;14.74;100.00;94836.03;5115202;28;20646;-60
2022/04/28 11:33:34;;;;;;;5.80;3.47;;;;;;;14.77;100.00;94849.31;5115141;28;20294;-61
2022/04/28 11:35:59;;;;;;;9.07;2.97;;;;;;;14.86;100.00;94851.00;5113676;28;20252;-61
2022/04/28 11:38:32;;;;;;;5.05;2.83;;;;;;;15.05;100.00;94840.53;5114712;28;20282;-60
2022/04/28 11:41:03;;;;;;;4.15;2.83;;;;;;;15.11;100.00;94829.66;5115254;28;20168;-61
2022/04/28 11:43:31;;;;;;;3.50;3.08;;;;;;;14.92;100.00;94834.22;5080034;28;20216;-60
2022/04/28 11:45:58;;;;;;;9.23;4.18;;;;;;;14.98;100.00;94813.94;5114953;28;20216;-60
2022/04/28 11:48:29;;;;;;;9.88;3.45;;;;;;;15.48;100.00;94849.88;5096849;28;20212;-63
2022/04/28 11:51:02;;;;;;;10.45;3.65;;;;;;;15.36;100.00;94873.31;5115209;28;20266;-60
2022/04/28 11:53:42;;;;;;;8.75;3.30;;;;;;;15.19;100.00;94836.56;5114572;28;20689;-61